Time;durP1;ratioP1;P1;durP2;ratioP2;P2;SDS_P1;SDS_P2;PMS_P1;PMS_P2;Temp;Humidity;BMP_temperature;BMP_pressure;BME280_temperature;BME280_humidity;BME280_pressure;Samples;Min_cycle;Max_cycle;Signal;HPM_P1;HPM_P2
2023/06/02 00:00:00;;;;;;;8.48;5.78;;;15.70;99.90;;;;;;4588398;19;20046;-24
2023/06/02 00:01:34;;;;;;;8.32;5.60;;;15.70;99.90;;;;;;4589755;19;20045;-28
2023/06/02 00:03:06;;;;;;;7.43;4.38;;;15.70;99.90;;;;;;4589135;19;20032;-28
2023/06/02 00:04:38;;;;;;;7.93;5.78;;;15.70;99.90;;;;;;4589732;19;20018;-23
2023/06/02 00:06:09;;;;;;;10.00;6.30;;;15.70;99.90;;;;;;4589335;19;20019;-25
2023/06/02 00:07:41;;;;;;;8.02;5.65;;;15.70;99.90;;;;;;4588250;19;20106;-23
2023/06/02 00:09:14;;;;;;;8.65;5.10;;;15.70;99.90;;;;;;4587793;19;20522;-23
2023/06/02 00:10:45;;;;;;;7.63;5.57;;;15.70;99.90;;;;;;4588093;19;20073;-25
2023/06/02 00:12:18;;;;;;;8.85;5.53;;;15.70;99.90;;;;;;4587204;19;20190;-25
2023/06/02 00:13:49;;;;;;;7.13;4.53;;;15.70;99.90;;;;;;4589448;19;20014;-26
2023/06/02 00:15:23;;;;;;;5.53;3.70;;;15.70;99.90;;;;;;4589742;19;20481;-24
2023/06/02 00:16:57;;;;;;;5.50;3.88;;;15.70;99.90;;;;;;4587939;19;20014;-23
2023/06/02 00:18:33;;;;;;;6.55;4.38;;;15.70;99.90;;;;;;4588964;19;20025;-25
2023/06/02 00:20:05;;;;;;;5.63;4.07;;;15.70;99.90;;;;;;4588979;19;20357;-26
2023/06/02 00:21:36;;;;;;;6.75;4.32;;;15.70;99.90;;;;;;4588638;19;20014;-25
2023/06/02 00:23:08;;;;;;;5.90;4.00;;;15.70;99.90;;;;;;4591491;19;20375;-24
2023/06/02 00:24:41;;;;;;;7.68;4.75;;;15.70;99.90;;;;;;4590856;19;20037;-24
2023/06/02 00:26:12;;;;;;;7.97;4.85;;;15.70;99.90;;;;;;4589244;19;20018;-27
2023/06/02 00:27:43;;;;;;;6.20;4.25;;;15.70;99.90;;;;;;4591757;19;20038;-24
2023/06/02 00:29:15;;;;;;;6.72;4.47;;;15.70;99.90;;;;;;4590001;19;20388;-25
2023/06/02 00:30:47;;;;;;;7.15;5.05;;;15.70;99.90;;;;;;4591830;19;20081;-25
2023/06/02 00:32:18;;;;;;;;;;;15.70;99.90;;;;;;4591553;19;20011;-23
2023/06/02 00:33:50;;;;;;;9.50;6.20;;;15.70;99.90;;;;;;4591132;19;19925;-24
2023/06/02 00:35:24;;;;;;;9.38;5.88;;;15.70;99.90;;;;;;4589223;19;20015;-25
2023/06/02 00:36:56;;;;;;;8.60;5.60;;;15.70;99.90;;;;;;4588137;19;20034;-27
2023/06/02 00:38:27;;;;;;;6.72;4.53;;;15.70;99.90;;;;;;4591388;19;20488;-24
2023/06/02 00:39:59;;;;;;;8.13;4.80;;;15.70;99.90;;;;;;4590748;19;20108;-26
2023/06/02 00:41:30;;;;;;;6.30;4.65;;;15.70;99.90;;;;;;4588757;19;20371;-23
2023/06/02 00:43:02;;;;;;;5.57;3.90;;;15.70;99.90;;;;;;4591198;19;20354;-23
2023/06/02 00:44:33;;;;;;;8.18;4.43;;;15.70;99.90;;;;;;4590210;19;20011;-26
2023/06/02 00:46:05;;;;;;;6.10;4.13;;;15.70;99.90;;;;;;4591110;19;20092;-24
2023/06/02 00:47:36;;;;;;;;;;;15.70;99.90;;;;;;4591591;19;20026;-24
2023/06/02 00:49:07;;;;;;;5.95;4.55;;;15.80;99.90;;;;;;4591092;19;19929;-24
2023/06/02 00:50:39;;;;;;;6.32;4.68;;;15.80;99.90;;;;;;4590410;19;20010;-25
2023/06/02 00:52:12;;;;;;;5.68;4.47;;;15.70;99.90;;;;;;4588445;19;20366;-24
2023/06/02 00:53:44;;;;;;;6.28;4.07;;;15.70;99.90;;;;;;4589818;19;20007;-24
2023/06/02 00:55:16;;;;;;;5.45;4.10;;;15.80;99.90;;;;;;4589322;19;20035;-27
2023/06/02 00:56:47;;;;;;;5.07;4.22;;;15.80;99.90;;;;;;4589589;19;20021;-26
2023/06/02 00:58:18;;;;;;;6.60;4.35;;;15.80;99.90;;;;;;4589560;19;20026;-26
2023/06/02 00:59:52;;;;;;;14.75;9.75;;;15.80;99.90;;;;;;4590230;19;20492;-24
2023/06/02 01:01:23;;;;;;;13.32;8.57;;;15.80;99.90;;;;;;4588937;19;20361;-22
2023/06/02 01:02:57;;;;;;;9.85;7.07;;;15.80;99.90;;;;;;4589479;19;20014;-26
2023/06/02 01:04:30;;;;;;;6.53;4.93;;;15.80;99.90;;;;;;4590869;19;20022;-25
2023/06/02 01:06:02;;;;;;;7.47;4.55;;;15.80;99.90;;;;;;4588599;19;20052;-24
2023/06/02 01:07:37;;;;;;;5.47;4.30;;;15.80;99.90;;;;;;4588824;19;20014;-28
2023/06/02 01:09:10;;;;;;;4.75;3.53;;;15.80;99.90;;;;;;4585794;19;20018;-23
2023/06/02 01:10:43;;;;;;;6.15;4.20;;;15.80;99.90;;;;;;4587419;19;20013;-24
2023/06/02 01:12:16;;;;;;;4.97;3.50;;;15.80;99.90;;;;;;4585793;19;20018;-24
2023/06/02 01:13:48;;;;;;;5.85;3.92;;;15.80;99.90;;;;;;4588485;19;20018;-25
2023/06/02 01:15:21;;;;;;;6.25;4.63;;;15.80;99.90;;;;;;4587739;19;20022;-25
2023/06/02 01:16:53;;;;;;;5.50;3.72;;;15.80;99.90;;;;;;4587803;19;20010;-25
2023/06/02 01:18:25;;;;;;;4.30;3.65;;;15.80;99.90;;;;;;4587633;19;20014;-25
2023/06/02 01:20:04;;;;;;;4.72;3.30;;;15.90;99.90;;;;;;4587324;19;20010;-25
2023/06/02 01:21:37;;;;;;;4.28;3.47;;;15.90;99.90;;;;;;4588015;19;20023;-26
2023/06/02 01:23:17;;;;;;;5.35;4.07;;;15.90;99.90;;;;;;4587080;19;20120;-25
2023/06/02 01:24:49;;;;;;;5.65;3.45;;;15.80;99.90;;;;;;4587891;19;20330;-23
2023/06/02 01:26:20;;;;;;;4.22;2.95;;;15.80;99.90;;;;;;4587158;19;20021;-24
2023/06/02 01:27:52;;;;;;;;;;;15.90;99.90;;;;;;4586928;19;20033;-28
2023/06/02 01:29:23;;;;;;;3.80;3.03;;;15.90;99.90;;;;;;4588463;19;19923;-28
2023/06/02 01:31:18;;;;;;;4.78;3.55;;;15.90;99.90;;;;;;4588341;19;20423;-24
2023/06/02 01:33:15;;;;;;;4.13;3.25;;;15.90;99.90;;;;;;4587084;19;20023;-28
2023/06/02 01:34:59;;;;;;;4.35;3.30;;;15.90;99.90;;;;;;4587159;19;20423;-24
2023/06/02 01:36:32;;;;;;;3.92;2.60;;;15.80;99.90;;;;;;4586722;19;20487;-23
2023/06/02 01:38:03;;;;;;;4.00;2.67;;;15.90;99.90;;;;;;4587719;19;20007;-26
2023/06/02 01:39:35;;;;;;;4.40;2.67;;;15.90;99.90;;;;;;4587537;19;20447;-27
2023/06/02 01:41:06;;;;;;;;;;;15.90;99.90;;;;;;4588849;19;20007;-26
2023/06/02 01:42:38;;;;;;;4.10;2.45;;;15.90;99.90;;;;;;4589559;19;19966;-26
2023/06/02 01:44:11;;;;;;;3.72;2.25;;;15.90;99.90;;;;;;4589688;19;20002;-26
2023/06/02 01:45:42;;;;;;;5.20;2.20;;;15.90;99.90;;;;;;4588257;19;20010;-25
2023/06/02 01:47:14;;;;;;;3.35;2.00;;;15.90;99.90;;;;;;4588464;19;20010;-25
2023/06/02 01:48:46;;;;;;;3.22;1.80;;;15.90;99.90;;;;;;4588868;19;20010;-24
2023/06/02 01:50:17;;;;;;;2.97;1.88;;;15.90;99.90;;;;;;4590025;19;20011;-25
2023/06/02 01:51:49;;;;;;;4.07;2.20;;;15.80;99.90;;;;;;4589340;19;20040;-24
2023/06/02 01:53:26;;;;;;;3.78;2.20;;;15.80;99.90;;;;;;4589572;19;20006;-24
2023/06/02 01:54:57;;;;;;;3.00;1.98;;;15.80;99.90;;;;;;4588364;19;20009;-24
2023/06/02 01:56:29;;;;;;;4.50;2.40;;;15.80;99.90;;;;;;4587660;19;20018;-24
2023/06/02 01:58:01;;;;;;;2.15;1.75;;;15.80;99.90;;;;;;4588764;19;20050;-26
2023/06/02 01:59:32;;;;;;;;;;;15.70;99.90;;;;;;4590348;19;20010;-25
2023/06/02 02:01:05;;;;;;;2.42;1.38;;;15.70;99.90;;;;;;4589348;19;19937;-26
2023/06/02 02:02:37;;;;;;;2.88;1.80;;;15.70;99.90;;;;;;4589791;19;20066;-23
2023/06/02 02:04:11;;;;;;;4.18;1.90;;;15.70;99.90;;;;;;4591389;19;20014;-24
2023/06/02 02:05:43;;;;;;;2.65;1.63;;;15.70;99.90;;;;;;4593443;19;20015;-23
2023/06/02 02:07:19;;;;;;;3.05;1.33;;;15.60;99.90;;;;;;4593279;19;20018;-24
2023/06/02 02:08:50;;;;;;;2.28;1.38;;;15.60;99.90;;;;;;4591801;19;20049;-23
2023/06/02 02:10:22;;;;;;;2.67;1.27;;;15.60;99.90;;;;;;4593714;19;20025;-25
2023/06/02 02:11:54;;;;;;;2.17;1.05;;;15.60;99.90;;;;;;4592417;19;20015;-24
2023/06/02 02:13:27;;;;;;;2.92;1.83;;;15.60;99.90;;;;;;4592560;19;20011;-25
2023/06/02 02:15:00;;;;;;;;;;;15.60;99.90;;;;;;4594837;19;20019;-24
2023/06/02 02:16:35;;;;;;;2.13;1.17;;;15.50;99.90;;;;;;4593074;19;19915;-25
2023/06/02 02:18:06;;;;;;;2.58;1.50;;;15.50;99.90;;;;;;4593642;19;20017;-23
2023/06/02 02:19:38;;;;;;;2.88;1.38;;;15.50;99.90;;;;;;4592373;19;20022;-24
2023/06/02 02:21:10;;;;;;;3.35;1.70;;;15.50;99.90;;;;;;4593562;19;20011;-23
2023/06/02 02:22:43;;;;;;;3.53;1.80;;;15.50;99.90;;;;;;4590954;19;20006;-24
2023/06/02 02:24:16;;;;;;;2.75;1.40;;;15.50;99.90;;;;;;4591501;19;20368;-24
2023/06/02 02:25:48;;;;;;;3.03;1.35;;;15.40;99.90;;;;;;4593110;19;20014;-25
2023/06/02 02:27:22;;;;;;;2.20;1.13;;;15.40;99.90;;;;;;4593122;19;20380;-24
2023/06/02 02:28:54;;;;;;;2.45;1.08;;;15.40;99.90;;;;;;4593541;19;20018;-24
2023/06/02 02:30:27;;;;;;;2.17;0.88;;;15.40;99.90;;;;;;4593728;19;20531;-23
2023/06/02 02:32:00;;;;;;;3.30;1.38;;;15.40;99.90;;;;;;4593876;19;20021;-25
2023/06/02 02:33:32;;;;;;;4.80;1.42;;;15.40;99.90;;;;;;4591841;19;20342;-22
2023/06/02 02:35:06;;;;;;;2.60;1.15;;;15.40;99.90;;;;;;4591954;19;20028;-25
2023/06/02 02:36:39;;;;;;;1.67;1.20;;;15.40;99.90;;;;;;4592288;19;19998;-25
2023/06/02 02:38:12;;;;;;;2.15;1.00;;;15.40;99.90;;;;;;4591008;19;20022;-25
2023/06/02 02:39:45;;;;;;;3.13;1.38;;;15.30;99.90;;;;;;4592347;19;20014;-24
2023/06/02 02:41:17;;;;;;;2.53;1.27;;;15.30;99.90;;;;;;4593175;19;20003;-23
2023/06/02 02:42:50;;;;;;;1.55;0.90;;;15.30;99.90;;;;;;4592161;19;20088;-28
2023/06/02 02:44:21;;;;;;;2.15;1.20;;;15.30;99.90;;;;;;4592716;19;20464;-24
2023/06/02 02:45:53;;;;;;;2.83;1.30;;;15.30;99.90;;;;;;4592701;19;20019;-28
2023/06/02 02:47:25;;;;;;;2.88;1.15;;;15.30;99.90;;;;;;4593261;19;20035;-25
2023/06/02 02:48:56;;;;;;;2.08;1.25;;;15.30;99.90;;;;;;4593401;19;20006;-25
2023/06/02 02:50:28;;;;;;;3.20;1.30;;;15.20;99.90;;;;;;4593346;19;20014;-25
2023/06/02 02:52:02;;;;;;;4.13;1.52;;;15.30;99.90;;;;;;4592908;19;20014;-25
2023/06/02 02:53:33;;;;;;;2.30;1.25;;;15.20;99.90;;;;;;4591408;19;20010;-25
2023/06/02 02:55:06;;;;;;;2.65;1.50;;;15.20;99.90;;;;;;4592324;19;20014;-27
2023/06/02 02:56:39;;;;;;;4.50;1.40;;;15.20;99.90;;;;;;4592218;19;20010;-25
2023/06/02 02:58:18;;;;;;;2.45;1.00;;;15.20;99.90;;;;;;4593184;19;20084;-26
2023/06/02 02:59:51;;;;;;;2.50;1.10;;;15.20;99.90;;;;;;4591526;19;20017;-28
2023/06/02 03:01:22;;;;;;;;;;;15.20;99.90;;;;;;4592950;19;20080;-27
2023/06/02 03:02:55;;;;;;;5.03;1.30;;;15.20;99.90;;;;;;4592742;19;19911;-25
2023/06/02 03:04:31;;;;;;;3.92;1.38;;;15.20;99.90;;;;;;4592410;19;20010;-25
2023/06/02 03:06:03;;;;;;;2.97;1.25;;;15.20;99.90;;;;;;4591604;19;20014;-24
2023/06/02 03:07:35;;;;;;;2.80;1.30;;;15.20;99.90;;;;;;4591748;19;20015;-25
2023/06/02 03:09:08;;;;;;;3.25;1.27;;;15.20;99.90;;;;;;4591565;19;20006;-23
2023/06/02 03:10:41;;;;;;;3.40;1.02;;;15.20;99.90;;;;;;4592431;19;20018;-23
2023/06/02 03:12:12;;;;;;;2.17;1.10;;;15.20;99.90;;;;;;4592503;19;20018;-24
2023/06/02 03:13:45;;;;;;;2.15;1.13;;;15.20;99.90;;;;;;4592525;19;20014;-25
2023/06/02 03:15:17;;;;;;;2.33;1.20;;;15.20;99.90;;;;;;4592149;19;20033;-24
2023/06/02 03:16:48;;;;;;;3.17;1.17;;;15.20;99.90;;;;;;4590317;19;20048;-26
2023/06/02 03:18:22;;;;;;;3.03;1.10;;;15.20;99.90;;;;;;4592088;19;20323;-24
2023/06/02 03:19:55;;;;;;;;;;;15.20;99.90;;;;;;4593357;19;20025;-27
2023/06/02 03:21:26;;;;;;;1.92;1.13;;;15.20;99.90;;;;;;4592073;19;19926;-27
2023/06/02 03:22:59;;;;;;;2.80;1.55;;;15.20;99.90;;;;;;4592014;19;20014;-24
2023/06/02 03:24:30;;;;;;;3.67;1.20;;;15.20;99.90;;;;;;4592234;19;20011;-25
2023/06/02 03:26:03;;;;;;;2.47;1.23;;;15.20;99.90;;;;;;4592380;19;20460;-23
2023/06/02 03:27:34;;;;;;;3.10;1.25;;;15.20;99.90;;;;;;4592152;19;20420;-28
2023/06/02 03:29:07;;;;;;;2.33;1.10;;;15.10;99.90;;;;;;4591053;19;20504;-24
2023/06/02 03:30:38;;;;;;;2.65;1.38;;;15.20;99.90;;;;;;4591881;19;20006;-23
2023/06/02 03:32:11;;;;;;;3.65;1.42;;;15.10;99.90;;;;;;4592299;19;20015;-29
2023/06/02 03:33:44;;;;;;;3.25;1.27;;;15.20;99.90;;;;;;4591826;19;20348;-26
2023/06/02 03:35:16;;;;;;;3.15;1.67;;;15.10;99.90;;;;;;4591059;19;20035;-26
2023/06/02 03:36:48;;;;;;;2.80;1.35;;;15.10;99.90;;;;;;4590825;19;20022;-28
2023/06/02 03:38:20;;;;;;;3.70;1.60;;;15.10;99.90;;;;;;4590862;19;20007;-27
2023/06/02 03:39:53;;;;;;;2.80;1.27;;;15.10;99.90;;;;;;4591666;19;20017;-24
2023/06/02 03:41:24;;;;;;;3.22;1.33;;;15.10;99.90;;;;;;4592133;19;20007;-26
2023/06/02 03:42:56;;;;;;;2.80;1.40;;;15.10;99.90;;;;;;4592011;19;19998;-27
2023/06/02 03:44:28;;;;;;;3.15;1.52;;;15.10;99.90;;;;;;4590491;19;20365;-23
2023/06/02 03:46:00;;;;;;;2.97;1.30;;;15.10;99.90;;;;;;4590620;19;20010;-23
2023/06/02 03:47:32;;;;;;;5.45;1.88;;;15.10;99.90;;;;;;4591025;19;20476;-24
2023/06/02 03:49:05;;;;;;;3.65;1.45;;;15.20;99.90;;;;;;4591700;19;20023;-25
2023/06/02 03:50:38;;;;;;;3.88;1.60;;;15.20;99.90;;;;;;4591479;19;20011;-21
2023/06/02 03:52:12;;;;;;;2.97;1.35;;;15.20;99.90;;;;;;4591536;19;20043;-24
2023/06/02 03:53:43;;;;;;;1.83;1.23;;;15.30;99.90;;;;;;4591179;19;20014;-22
2023/06/02 03:55:17;;;;;;;3.53;1.40;;;15.30;99.90;;;;;;4591643;19;20485;-26
2023/06/02 03:56:49;;;;;;;1.98;1.17;;;15.30;99.90;;;;;;4590561;19;20123;-27
2023/06/02 03:58:23;;;;;;;3.25;1.40;;;15.30;99.90;;;;;;4591748;19;20048;-25
2023/06/02 03:59:54;;;;;;;3.40;1.60;;;15.30;99.90;;;;;;4591558;19;20026;-23
2023/06/02 04:01:27;;;;;;;3.15;1.40;;;15.40;99.90;;;;;;4591994;19;20027;-24
2023/06/02 04:02:59;;;;;;;3.25;1.70;;;15.40;99.90;;;;;;4591323;19;20404;-23
2023/06/02 04:04:31;;;;;;;3.40;1.83;;;15.40;99.90;;;;;;4591360;19;20010;-26
2023/06/02 04:06:05;;;;;;;4.22;1.67;;;15.40;99.90;;;;;;4591726;19;20011;-23
2023/06/02 04:07:37;;;;;;;3.08;1.30;;;15.30;99.90;;;;;;4589315;19;20022;-24
2023/06/02 04:09:11;;;;;;;4.00;1.70;;;15.40;99.90;;;;;;4589354;19;20345;-24
2023/06/02 04:10:43;;;;;;;4.25;1.67;;;15.30;99.90;;;;;;4591289;19;20010;-28
2023/06/02 04:12:14;;;;;;;4.15;1.92;;;15.30;99.90;;;;;;4591690;19;20007;-24
2023/06/02 04:13:45;;;;;;;4.75;1.75;;;15.30;99.90;;;;;;4588597;19;20014;-28
2023/06/02 04:15:18;;;;;;;3.83;1.60;;;15.30;99.90;;;;;;4590246;19;20366;-23
2023/06/02 04:16:51;;;;;;;3.40;1.40;;;15.30;99.90;;;;;;4590990;19;20034;-24
2023/06/02 04:18:22;;;;;;;3.13;1.75;;;15.30;99.90;;;;;;4591352;19;20489;-24
2023/06/02 04:19:54;;;;;;;4.25;1.70;;;15.30;99.90;;;;;;4590565;19;20007;-28
2023/06/02 04:21:26;;;;;;;3.40;2.08;;;15.30;99.90;;;;;;4590732;19;20369;-26
2023/06/02 04:22:58;;;;;;;3.80;1.60;;;15.30;99.90;;;;;;4590050;19;20010;-26
2023/06/02 04:24:30;;;;;;;3.22;1.85;;;15.30;99.90;;;;;;4587889;19;20488;-23
2023/06/02 04:26:01;;;;;;;4.40;2.05;;;15.30;99.90;;;;;;4589220;19;20018;-23
2023/06/02 04:27:32;;;;;;;4.85;2.13;;;15.30;99.90;;;;;;4590392;19;20022;-25
2023/06/02 04:29:05;;;;;;;2.65;1.50;;;15.30;99.90;;;;;;4591235;19;20007;-23
2023/06/02 04:30:38;;;;;;;4.25;1.90;;;15.30;99.90;;;;;;4591398;19;20022;-25
2023/06/02 04:32:09;;;;;;;3.42;1.70;;;15.30;99.90;;;;;;4590275;19;20479;-27
2023/06/02 04:33:41;;;;;;;3.80;2.03;;;15.30;99.90;;;;;;4589279;19;20021;-24
2023/06/02 04:35:13;;;;;;;3.90;1.80;;;15.30;99.90;;;;;;4590555;19;20011;-23
2023/06/02 04:36:45;;;;;;;3.63;2.20;;;15.30;99.90;;;;;;4589628;19;20006;-25
2023/06/02 04:38:16;;;;;;;5.82;2.13;;;15.30;99.90;;;;;;4589842;19;20038;-27
2023/06/02 04:39:48;;;;;;;4.28;1.70;;;15.60;99.90;;;;;;4590701;19;20014;-25
2023/06/02 04:41:22;;;;;;;3.25;1.88;;;16.10;99.90;;;;;;4591061;19;20009;-24
2023/06/02 04:42:55;;;;;;;3.20;1.50;;;16.60;99.90;;;;;;4589088;19;20069;-25
2023/06/02 04:44:27;;;;;;;3.50;1.55;;;17.10;99.90;;;;;;4589870;19;20081;-28
2023/06/02 04:46:01;;;;;;;3.97;1.67;;;17.40;99.90;;;;;;4590617;19;20006;-26
2023/06/02 04:47:33;;;;;;;5.07;1.88;;;17.70;99.90;;;;;;4588313;19;20017;-24
2023/06/02 04:49:08;;;;;;;3.38;1.50;;;18.00;99.90;;;;;;4589337;19;20029;-23
2023/06/02 04:50:40;;;;;;;3.15;1.65;;;18.20;99.90;;;;;;4589906;19;20010;-24
2023/06/02 04:52:11;;;;;;;;;;;18.40;99.90;;;;;;4590219;19;20060;-23
2023/06/02 04:53:43;;;;;;;4.10;1.50;;;18.50;99.90;;;;;;4589092;19;19966;-25
2023/06/02 04:55:15;;;;;;;4.07;1.80;;;18.60;99.90;;;;;;4590187;19;20476;-24
2023/06/02 04:56:46;;;;;;;4.03;1.67;;;18.70;99.90;;;;;;4589685;19;20031;-25
2023/06/02 04:58:18;;;;;;;3.65;1.95;;;18.80;99.90;;;;;;4590135;19;20010;-27
2023/06/02 04:59:49;;;;;;;4.00;1.45;;;19.00;99.90;;;;;;4590858;19;20015;-24
2023/06/02 05:01:21;;;;;;;;;;;19.00;99.90;;;;;;4590683;19;20022;-25
2023/06/02 05:02:52;;;;;;;4.07;1.65;;;19.10;99.90;;;;;;4587634;19;19921;-27
2023/06/02 05:04:23;;;;;;;3.92;1.65;;;19.20;99.90;;;;;;4588969;19;20359;-24
2023/06/02 05:05:55;;;;;;;3.60;1.60;;;19.30;99.90;;;;;;4590659;19;20021;-26
2023/06/02 05:07:27;;;;;;;;;;;19.40;99.90;;;;;;4588786;19;20014;-23
2023/06/02 05:09:00;;;;;;;2.45;1.10;;;19.50;99.90;;;;;;4589025;19;20357;-24
2023/06/02 05:10:31;;;;;;;4.45;1.60;;;19.50;99.90;;;;;;4590762;19;20006;-27
2023/06/02 05:12:03;;;;;;;3.17;1.63;;;19.50;99.90;;;;;;4589930;19;20014;-24
2023/06/02 05:13:34;;;;;;;3.15;1.60;;;19.60;99.90;;;;;;4588377;19;20010;-27
2023/06/02 05:15:07;;;;;;;4.13;1.75;;;19.60;99.90;;;;;;4589731;19;20022;-23
2023/06/02 05:16:44;;;;;;;3.10;1.48;;;19.70;99.90;;;;;;4588953;19;20040;-24
2023/06/02 05:18:16;;;;;;;3.88;1.30;;;19.90;99.90;;;;;;4587778;19;20046;-25
2023/06/02 05:19:48;;;;;;;3.78;1.50;;;19.90;99.90;;;;;;4588277;19;20007;-25
2023/06/02 05:21:19;;;;;;;2.70;1.70;;;19.90;99.90;;;;;;4587050;19;20014;-24
2023/06/02 05:22:50;;;;;;;3.83;1.65;;;19.90;99.90;;;;;;4587856;19;20007;-25
2023/06/02 05:24:22;;;;;;;3.90;2.13;;;20.00;99.90;;;;;;4588165;19;20026;-25
2023/06/02 05:25:53;;;;;;;;;;;20.10;99.90;;;;;;4590725;19;20038;-26
2023/06/02 05:27:25;;;;;;;4.18;1.45;;;20.10;99.90;;;;;;4589766;19;19933;-25
2023/06/02 05:28:57;;;;;;;3.95;1.63;;;20.20;99.90;;;;;;4589849;19;20344;-27
2023/06/02 05:30:28;;;;;;;4.43;2.00;;;20.40;99.90;;;;;;4588780;19;20032;-27
2023/06/02 05:31:59;;;;;;;3.63;1.73;;;20.40;99.90;;;;;;4588645;19;20010;-26
2023/06/02 05:33:31;;;;;;;2.63;1.40;;;20.60;99.90;;;;;;4586360;19;20006;-25
2023/06/02 05:35:02;;;;;;;3.78;1.80;;;20.80;99.90;;;;;;4589632;19;20010;-26
2023/06/02 05:36:33;;;;;;;5.45;2.25;;;20.90;99.90;;;;;;4586070;19;20060;-25
2023/06/02 05:38:05;;;;;;;4.00;1.70;;;21.20;99.90;;;;;;4590135;19;20014;-28
2023/06/02 05:39:36;;;;;;;;;;;21.40;99.90;;;;;;4595717;19;20011;-24
2023/06/02 05:41:08;;;;;;;3.30;1.80;;;21.60;99.90;;;;;;4594466;19;20385;-30
2023/06/02 05:42:39;;;;;;;4.43;1.77;;;21.70;99.90;;;;;;4593938;19;20038;-25
2023/06/02 05:44:11;;;;;;;4.30;1.98;;;21.70;99.90;;;;;;4591906;19;20026;-25
2023/06/02 05:45:42;;;;;;;5.00;1.80;;;21.90;99.90;;;;;;4592295;19;20010;-27
2023/06/02 05:47:13;;;;;;;4.10;1.83;;;21.90;99.90;;;;;;4591555;19;20098;-24
2023/06/02 05:48:45;;;;;;;6.75;2.08;;;21.80;99.90;;;;;;4591648;19;20013;-27
2023/06/02 05:50:16;;;;;;;4.82;2.05;;;21.70;99.90;;;;;;4591531;19;20364;-28
2023/06/02 05:51:48;;;;;;;4.30;2.35;;;21.80;99.90;;;;;;4592518;19;20017;-24
2023/06/02 05:53:19;;;;;;;5.60;2.28;;;21.80;99.90;;;;;;4594629;19;20421;-24
2023/06/02 05:54:52;;;;;;;3.88;1.80;;;22.00;99.90;;;;;;4592884;19;20010;-29
2023/06/02 05:56:25;;;;;;;4.90;1.95;;;22.00;99.90;;;;;;4591345;19;20485;-25
2023/06/02 05:57:58;;;;;;;3.17;1.80;;;22.00;99.90;;;;;;4593020;19;20022;-25
2023/06/02 05:59:30;;;;;;;3.80;1.75;;;21.90;99.90;;;;;;4593200;19;20026;-23
2023/06/02 06:01:05;;;;;;;6.50;2.30;;;21.80;99.90;;;;;;4593019;19;20537;-26
2023/06/02 06:02:38;;;;;;;4.47;2.35;;;21.70;99.90;;;;;;4592523;19;20480;-25
2023/06/02 06:04:09;;;;;;;4.75;1.73;;;21.80;99.90;;;;;;4590514;19;20066;-22
2023/06/02 06:05:41;;;;;;;3.90;1.98;;;21.90;99.90;;;;;;4591828;19;20015;-23
2023/06/02 06:07:12;;;;;;;3.40;1.58;;;21.80;99.90;;;;;;4592418;19;20531;-25
2023/06/02 06:08:43;;;;;;;5.15;1.75;;;21.70;99.90;;;;;;4591776;19;20096;-23
2023/06/02 06:10:14;;;;;;;;;;;21.80;99.90;;;;;;4593736;19;20014;-24
2023/06/02 06:11:46;;;;;;;5.13;1.80;;;21.70;99.90;;;;;;4591587;19;19911;-21
2023/06/02 06:13:17;;;;;;;;;;;21.70;99.90;;;;;;4592735;19;20006;-22
2023/06/02 06:14:49;;;;;;;2.08;1.30;;;21.70;99.90;;;;;;4591116;19;19923;-22
2023/06/02 06:16:20;;;;;;;3.42;1.48;;;21.70;99.90;;;;;;4590886;19;20089;-22
2023/06/02 06:17:52;;;;;;;;;;;21.70;99.90;;;;;;4592398;19;20018;-25
2023/06/02 06:19:23;;;;;;;4.68;1.38;;;21.70;99.90;;;;;;4592688;19;19919;-25
2023/06/02 06:20:54;;;;;;;2.85;1.40;;;21.70;99.90;;;;;;4593072;19;20071;-26
2023/06/02 06:22:26;;;;;;;3.88;1.50;;;21.60;99.90;;;;;;4593140;19;20014;-23
2023/06/02 06:23:58;;;;;;;4.32;1.70;;;21.60;99.90;;;;;;4593526;19;20015;-23
2023/06/02 06:25:30;;;;;;;3.50;1.70;;;21.60;99.90;;;;;;4591860;19;20443;-24
2023/06/02 06:27:01;;;;;;;3.08;1.60;;;21.60;99.90;;;;;;4591698;19;20011;-23
2023/06/02 06:28:33;;;;;;;2.10;1.30;;;21.60;99.90;;;;;;4591025;19;20025;-21
2023/06/02 06:30:06;;;;;;;3.20;1.55;;;21.60;99.90;;;;;;4591306;19;20396;-22
2023/06/02 06:31:37;;;;;;;3.42;1.27;;;21.70;99.90;;;;;;4591655;19;20010;-24
2023/06/02 06:33:09;;;;;;;;;;;21.70;99.90;;;;;;4591223;19;20031;-23
2023/06/02 06:34:40;;;;;;;5.40;1.90;;;21.70;99.90;;;;;;4593842;19;19930;-21
2023/06/02 06:36:11;;;;;;;2.30;1.10;;;21.70;99.90;;;;;;4592165;19;20047;-24
2023/06/02 06:37:43;;;;;;;4.13;1.85;;;21.70;99.90;;;;;;4592453;19;20015;-23
2023/06/02 06:39:15;;;;;;;2.15;1.00;;;21.80;99.90;;;;;;4592648;19;20010;-23
2023/06/02 06:40:46;;;;;;;3.58;1.85;;;21.90;99.90;;;;;;4593255;19;20018;-23
2023/06/02 06:42:18;;;;;;;3.53;1.27;;;22.00;99.90;;;;;;4592037;19;20023;-21
2023/06/02 06:43:49;;;;;;;3.83;1.48;;;21.80;99.90;;;;;;4592852;19;20040;-24
2023/06/02 06:45:21;;;;;;;4.95;1.48;;;21.70;99.90;;;;;;4591218;19;20021;-24
2023/06/02 06:46:53;;;;;;;4.72;1.70;;;21.60;99.90;;;;;;4592512;19;20019;-22
2023/06/02 06:48:25;;;;;;;5.10;1.42;;;21.50;99.90;;;;;;4593128;19;20024;-23
2023/06/02 06:49:57;;;;;;;5.15;1.90;;;21.50;99.90;;;;;;4590224;19;20003;-27
2023/06/02 06:51:28;;;;;;;4.57;1.67;;;21.50;99.90;;;;;;4592477;19;20015;-24
2023/06/02 06:53:01;;;;;;;2.65;1.38;;;21.60;99.90;;;;;;4593030;19;20044;-25
2023/06/02 06:54:32;;;;;;;4.47;1.50;;;21.50;99.90;;;;;;4593200;19;20010;-23
2023/06/02 06:56:05;;;;;;;2.30;1.10;;;21.50;99.90;;;;;;4592593;19;20034;-24
2023/06/02 06:57:37;;;;;;;3.97;1.63;;;21.50;99.90;;;;;;4589947;19;20011;-23
2023/06/02 06:59:11;;;;;;;3.40;1.40;;;21.40;99.90;;;;;;4592946;19;20484;-24
2023/06/02 07:00:43;;;;;;;5.45;1.70;;;21.40;99.90;;;;;;4591956;19;20032;-25
2023/06/02 07:02:14;;;;;;;2.90;1.52;;;21.40;99.90;;;;;;4592250;19;20010;-29
2023/06/02 07:03:45;;;;;;;;;;;21.50;99.90;;;;;;4592115;19;20484;-24
2023/06/02 07:05:18;;;;;;;3.55;1.60;;;21.50;99.90;;;;;;4592737;19;19923;-27
2023/06/02 07:06:51;;;;;;;2.35;1.17;;;21.50;99.90;;;;;;4590909;19;20359;-26
2023/06/02 07:08:22;;;;;;;2.17;1.00;;;21.50;99.90;;;;;;4590654;19;20041;-27
2023/06/02 07:09:54;;;;;;;4.30;1.25;;;21.40;99.90;;;;;;4591602;19;20020;-29
2023/06/02 07:11:27;;;;;;;2.35;0.95;;;21.50;99.90;;;;;;4591216;19;20105;-24
2023/06/02 07:12:59;;;;;;;2.65;1.10;;;21.50;99.90;;;;;;4590970;19;20014;-29
2023/06/02 07:14:31;;;;;;;1.95;1.08;;;21.50;99.90;;;;;;4591890;19;20018;-26
2023/06/02 07:16:02;;;;;;;4.05;1.23;;;21.50;99.90;;;;;;4591116;19;20341;-25
2023/06/02 07:17:34;;;;;;;3.50;0.98;;;21.50;99.90;;;;;;4590908;19;20015;-26
2023/06/02 07:19:06;;;;;;;;;;;21.50;99.90;;;;;;4593336;19;20460;-25
2023/06/02 07:20:37;;;;;;;5.67;1.40;;;21.50;99.90;;;;;;4592581;19;20005;-25
2023/06/02 07:22:09;;;;;;;6.18;1.67;;;21.50;99.90;;;;;;4592779;19;20474;-25
2023/06/02 07:23:41;;;;;;;2.38;1.23;;;21.40;99.90;;;;;;4592358;19;20035;-28
2023/06/02 07:25:12;;;;;;;3.78;1.20;;;21.40;99.90;;;;;;4592043;19;20014;-26
2023/06/02 07:26:44;;;;;;;2.60;1.27;;;21.40;99.90;;;;;;4592258;19;20010;-25
2023/06/02 07:28:15;;;;;;;;;;;21.50;99.90;;;;;;4592149;19;20501;-29
2023/06/02 07:29:46;;;;;;;2.58;1.02;;;21.40;99.90;;;;;;4591988;19;19930;-28
2023/06/02 07:31:18;;;;;;;5.22;1.45;;;21.40;99.90;;;;;;4591895;19;20010;-24
2023/06/02 07:32:50;;;;;;;4.47;1.30;;;21.40;99.90;;;;;;4591104;19;20015;-25
2023/06/02 07:34:22;;;;;;;2.88;0.98;;;21.30;99.90;;;;;;4590610;19;20019;-26
2023/06/02 07:35:55;;;;;;;1.80;1.02;;;21.30;99.90;;;;;;4592010;19;20091;-26
2023/06/02 07:37:26;;;;;;;;;;;21.40;99.90;;;;;;4591313;19;20017;-24
2023/06/02 07:38:58;;;;;;;;;;;21.30;99.90;;;;;;4593273;19;19922;-28
2023/06/02 07:40:29;;;;;;;2.38;1.25;;;21.30;99.90;;;;;;4592375;19;19919;-25
2023/06/02 07:42:02;;;;;;;3.45;1.20;;;21.30;99.90;;;;;;4591908;19;20026;-26
2023/06/02 07:43:33;;;;;;;4.35;1.10;;;21.30;99.90;;;;;;4591810;19;20015;-25
2023/06/02 07:45:05;;;;;;;2.55;1.05;;;21.40;99.90;;;;;;4592086;19;20411;-26
2023/06/02 07:46:37;;;;;;;2.30;1.10;;;21.40;99.90;;;;;;4590541;19;20018;-26
2023/06/02 07:48:09;;;;;;;2.75;1.08;;;21.40;99.90;;;;;;4590400;19;20010;-24
2023/06/02 07:49:40;;;;;;;;;;;21.40;99.90;;;;;;4590470;19;20011;-28
2023/06/02 07:51:12;;;;;;;2.22;1.05;;;21.30;99.90;;;;;;4591322;19;19934;-23
2023/06/02 07:52:43;;;;;;;2.33;1.33;;;21.30;99.90;;;;;;4589244;19;19999;-29
2023/06/02 07:54:15;;;;;;;3.60;1.67;;;21.30;99.90;;;;;;4590377;19;20007;-25
2023/06/02 07:55:46;;;;;;;2.55;0.90;;;21.20;99.90;;;;;;4591624;19;20014;-26
2023/06/02 07:57:18;;;;;;;3.05;1.10;;;21.30;99.90;;;;;;4589723;19;20003;-29
2023/06/02 07:58:49;;;;;;;2.53;0.90;;;21.30;99.90;;;;;;4590963;19;20471;-24
2023/06/02 08:00:23;;;;;;;3.03;1.42;;;21.40;99.90;;;;;;4591352;19;20517;-27
2023/06/02 08:01:57;;;;;;;2.08;0.95;;;21.40;99.90;;;;;;4589961;19;20015;-23
2023/06/02 08:03:28;;;;;;;2.72;1.20;;;21.30;99.90;;;;;;4590496;19;20007;-24